sensor_id;sensor_type;location;lat;lon;timestamp;P1;durP1;ratioP1;P2;durP2;ratioP2
8066;SDS011;4076;48.076;9.118;2023-05-14T00:00:39;6.90;;;5.20;;
8066;SDS011;4076;48.076;9.118;2023-05-14T00:03:05;8.97;;;5.70;;
8066;SDS011;4076;48.076;9.118;2023-05-14T00:05:31;7.40;;;6.10;;
8066;SDS011;4076;48.076;9.118;2023-05-14T00:07:56;8.50;;;6.27;;
8066;SDS011;4076;48.076;9.118;2023-05-14T00:10:22;10.70;;;6.97;;
8066;SDS011;4076;48.076;9.118;2023-05-14T00:12:47;7.67;;;4.90;;
8066;SDS011;4076;48.076;9.118;2023-05-14T00:15:14;10.00;;;7.30;;
8066;SDS011;4076;48.076;9.118;2023-05-14T00:17:40;9.93;;;7.80;;
8066;SDS011;4076;48.076;9.118;2023-05-14T00:20:06;8.50;;;6.97;;
8066;SDS011;4076;48.076;9.118;2023-05-14T00:22:32;8.93;;;6.70;;
8066;SDS011;4076;48.076;9.118;2023-05-14T00:24:58;9.87;;;6.30;;
8066;SDS011;4076;48.076;9.118;2023-05-14T00:27:23;6.30;;;4.57;;
8066;SDS011;4076;48.076;9.118;2023-05-14T00:29:49;7.63;;;6.00;;
8066;SDS011;4076;48.076;9.118;2023-05-14T00:32:15;9.57;;;6.00;;
8066;SDS011;4076;48.076;9.118;2023-05-14T00:34:41;9.13;;;5.60;;
8066;SDS011;4076;48.076;9.118;2023-05-14T00:37:06;8.93;;;7.40;;
8066;SDS011;4076;48.076;9.118;2023-05-14T00:39:32;9.57;;;7.80;;
8066;SDS011;4076;48.076;9.118;2023-05-14T00:41:58;7.63;;;6.53;;
8066;SDS011;4076;48.076;9.118;2023-05-14T00:44:23;9.57;;;6.20;;
8066;SDS011;4076;48.076;9.118;2023-05-14T00:46:49;9.00;;;7.07;;
8066;SDS011;4076;48.076;9.118;2023-05-14T00:49:14;9.87;;;7.00;;
8066;SDS011;4076;48.076;9.118;2023-05-14T00:51:40;9.07;;;6.70;;
8066;SDS011;4076;48.076;9.118;2023-05-14T00:54:06;9.10;;;6.00;;
8066;SDS011;4076;48.076;9.118;2023-05-14T00:56:33;7.60;;;5.87;;
8066;SDS011;4076;48.076;9.118;2023-05-14T00:59:00;6.07;;;5.37;;
8066;SDS011;4076;48.076;9.118;2023-05-14T01:01:25;6.80;;;5.17;;
8066;SDS011;4076;48.076;9.118;2023-05-14T01:03:52;9.50;;;6.00;;
8066;SDS011;4076;48.076;9.118;2023-05-14T01:06:34;9.57;;;7.40;;
8066;SDS011;4076;48.076;9.118;2023-05-14T01:09:44;7.80;;;5.80;;
8066;SDS011;4076;48.076;9.118;2023-05-14T01:12:27;6.37;;;5.23;;
8066;SDS011;4076;48.076;9.118;2023-05-14T01:15:14;7.67;;;5.87;;
8066;SDS011;4076;48.076;9.118;2023-05-14T01:17:47;9.90;;;6.93;;
8066;SDS011;4076;48.076;9.118;2023-05-14T01:20:24;9.90;;;7.00;;
8066;SDS011;4076;48.076;9.118;2023-05-14T01:22:50;9.57;;;6.20;;
8066;SDS011;4076;48.076;9.118;2023-05-14T01:25:16;8.33;;;6.10;;
8066;SDS011;4076;48.076;9.118;2023-05-14T01:30:32;7.90;;;5.83;;
8066;SDS011;4076;48.076;9.118;2023-05-14T01:33:11;9.33;;;7.10;;
8066;SDS011;4076;48.076;9.118;2023-05-14T01:35:38;9.70;;;6.83;;
8066;SDS011;4076;48.076;9.118;2023-05-14T01:38:05;9.60;;;7.40;;
8066;SDS011;4076;48.076;9.118;2023-05-14T01:40:33;8.43;;;5.90;;
8066;SDS011;4076;48.076;9.118;2023-05-14T01:43:00;8.30;;;5.93;;
8066;SDS011;4076;48.076;9.118;2023-05-14T01:45:26;12.80;;;6.00;;
8066;SDS011;4076;48.076;9.118;2023-05-14T01:47:52;8.30;;;5.37;;
8066;SDS011;4076;48.076;9.118;2023-05-14T01:50:18;7.77;;;5.13;;
8066;SDS011;4076;48.076;9.118;2023-05-14T01:52:43;7.50;;;4.80;;
8066;SDS011;4076;48.076;9.118;2023-05-14T01:55:09;8.90;;;5.67;;
8066;SDS011;4076;48.076;9.118;2023-05-14T01:57:35;7.20;;;5.20;;
8066;SDS011;4076;48.076;9.118;2023-05-14T02:00:00;7.30;;;5.17;;
8066;SDS011;4076;48.076;9.118;2023-05-14T02:02:26;5.10;;;3.40;;
8066;SDS011;4076;48.076;9.118;2023-05-14T02:04:51;6.80;;;5.50;;
8066;SDS011;4076;48.076;9.118;2023-05-14T02:07:17;8.50;;;5.80;;
8066;SDS011;4076;48.076;9.118;2023-05-14T02:09:43;9.27;;;6.63;;
8066;SDS011;4076;48.076;9.118;2023-05-14T02:12:08;7.30;;;5.13;;
8066;SDS011;4076;48.076;9.118;2023-05-14T02:14:35;10.93;;;7.47;;
8066;SDS011;4076;48.076;9.118;2023-05-14T02:17:00;6.83;;;4.43;;
8066;SDS011;4076;48.076;9.118;2023-05-14T02:19:27;8.37;;;6.70;;
8066;SDS011;4076;48.076;9.118;2023-05-14T02:21:53;7.03;;;5.40;;
8066;SDS011;4076;48.076;9.118;2023-05-14T02:24:19;9.67;;;6.90;;
8066;SDS011;4076;48.076;9.118;2023-05-14T02:26:44;6.60;;;4.93;;
8066;SDS011;4076;48.076;9.118;2023-05-14T02:29:10;8.77;;;6.50;;
8066;SDS011;4076;48.076;9.118;2023-05-14T02:31:35;7.03;;;5.20;;
8066;SDS011;4076;48.076;9.118;2023-05-14T02:34:01;7.73;;;5.70;;
8066;SDS011;4076;48.076;9.118;2023-05-14T02:36:27;8.30;;;6.40;;
8066;SDS011;4076;48.076;9.118;2023-05-14T02:38:52;6.57;;;5.57;;
8066;SDS011;4076;48.076;9.118;2023-05-14T02:41:18;6.53;;;5.10;;
8066;SDS011;4076;48.076;9.118;2023-05-14T02:43:43;7.27;;;5.13;;
8066;SDS011;4076;48.076;9.118;2023-05-14T02:46:10;10.00;;;6.57;;
8066;SDS011;4076;48.076;9.118;2023-05-14T02:48:35;9.53;;;7.00;;
8066;SDS011;4076;48.076;9.118;2023-05-14T02:51:01;9.47;;;6.03;;
8066;SDS011;4076;48.076;9.118;2023-05-14T02:53:26;9.13;;;6.73;;
8066;SDS011;4076;48.076;9.118;2023-05-14T02:55:52;8.30;;;5.20;;
8066;SDS011;4076;48.076;9.118;2023-05-14T02:58:17;7.40;;;5.70;;
8066;SDS011;4076;48.076;9.118;2023-05-14T03:00:43;7.27;;;5.20;;
8066;SDS011;4076;48.076;9.118;2023-05-14T03:03:08;7.63;;;4.90;;
8066;SDS011;4076;48.076;9.118;2023-05-14T03:05:34;6.00;;;5.33;;
8066;SDS011;4076;48.076;9.118;2023-05-14T03:08:00;7.43;;;5.93;;
8066;SDS011;4076;48.076;9.118;2023-05-14T03:10:25;9.07;;;5.80;;
8066;SDS011;4076;48.076;9.118;2023-05-14T03:12:51;6.97;;;5.27;;
8066;SDS011;4076;48.076;9.118;2023-05-14T03:15:16;8.90;;;6.47;;
8066;SDS011;4076;48.076;9.118;2023-05-14T03:17:42;7.03;;;5.20;;
8066;SDS011;4076;48.076;9.118;2023-05-14T03:20:07;10.07;;;7.77;;
8066;SDS011;4076;48.076;9.118;2023-05-14T03:22:34;7.30;;;6.30;;
8066;SDS011;4076;48.076;9.118;2023-05-14T03:25:00;8.03;;;6.90;;
8066;SDS011;4076;48.076;9.118;2023-05-14T03:27:25;7.33;;;4.67;;
8066;SDS011;4076;48.076;9.118;2023-05-14T03:29:51;7.57;;;5.53;;
8066;SDS011;4076;48.076;9.118;2023-05-14T03:32:16;9.27;;;6.50;;
8066;SDS011;4076;48.076;9.118;2023-05-14T03:34:42;9.73;;;6.90;;
8066;SDS011;4076;48.076;9.118;2023-05-14T03:37:08;8.30;;;5.10;;
8066;SDS011;4076;48.076;9.118;2023-05-14T03:39:34;8.10;;;5.50;;
8066;SDS011;4076;48.076;9.118;2023-05-14T03:42:00;8.27;;;5.60;;
8066;SDS011;4076;48.076;9.118;2023-05-14T03:44:26;7.33;;;5.20;;
8066;SDS011;4076;48.076;9.118;2023-05-14T03:46:51;8.33;;;5.97;;
8066;SDS011;4076;48.076;9.118;2023-05-14T03:49:17;8.43;;;6.40;;
8066;SDS011;4076;48.076;9.118;2023-05-14T03:51:43;10.80;;;7.50;;
8066;SDS011;4076;48.076;9.118;2023-05-14T03:54:09;11.13;;;6.40;;
8066;SDS011;4076;48.076;9.118;2023-05-14T03:56:34;7.47;;;5.27;;
8066;SDS011;4076;48.076;9.118;2023-05-14T03:59:00;11.70;;;7.87;;
8066;SDS011;4076;48.076;9.118;2023-05-14T04:01:26;16.27;;;8.97;;
8066;SDS011;4076;48.076;9.118;2023-05-14T04:03:51;9.97;;;6.83;;
8066;SDS011;4076;48.076;9.118;2023-05-14T04:06:17;12.53;;;8.07;;
8066;SDS011;4076;48.076;9.118;2023-05-14T04:08:43;12.17;;;8.07;;
8066;SDS011;4076;48.076;9.118;2023-05-14T04:11:08;10.07;;;7.67;;
8066;SDS011;4076;48.076;9.118;2023-05-14T04:13:34;11.40;;;7.50;;
8066;SDS011;4076;48.076;9.118;2023-05-14T04:15:59;8.30;;;6.90;;
8066;SDS011;4076;48.076;9.118;2023-05-14T04:18:25;11.77;;;7.33;;
8066;SDS011;4076;48.076;9.118;2023-05-14T04:20:50;12.60;;;8.43;;
8066;SDS011;4076;48.076;9.118;2023-05-14T04:23:16;9.20;;;6.47;;
8066;SDS011;4076;48.076;9.118;2023-05-14T04:25:41;9.87;;;6.57;;
8066;SDS011;4076;48.076;9.118;2023-05-14T04:28:07;9.30;;;5.80;;
8066;SDS011;4076;48.076;9.118;2023-05-14T04:30:32;11.07;;;7.93;;
8066;SDS011;4076;48.076;9.118;2023-05-14T04:32:58;9.47;;;6.13;;
8066;SDS011;4076;48.076;9.118;2023-05-14T04:35:23;12.33;;;8.17;;
8066;SDS011;4076;48.076;9.118;2023-05-14T04:37:49;10.03;;;7.30;;
8066;SDS011;4076;48.076;9.118;2023-05-14T04:40:14;14.13;;;9.33;;
8066;SDS011;4076;48.076;9.118;2023-05-14T04:42:43;13.17;;;9.07;;
8066;SDS011;4076;48.076;9.118;2023-05-14T04:45:09;11.37;;;8.17;;
8066;SDS011;4076;48.076;9.118;2023-05-14T04:47:35;10.77;;;7.53;;
8066;SDS011;4076;48.076;9.118;2023-05-14T04:50:00;9.77;;;6.33;;
8066;SDS011;4076;48.076;9.118;2023-05-14T04:52:26;8.70;;;5.80;;
8066;SDS011;4076;48.076;9.118;2023-05-14T04:54:52;10.93;;;7.57;;
8066;SDS011;4076;48.076;9.118;2023-05-14T04:57:18;10.73;;;7.50;;
8066;SDS011;4076;48.076;9.118;2023-05-14T04:59:43;11.47;;;7.30;;
8066;SDS011;4076;48.076;9.118;2023-05-14T05:02:09;9.30;;;6.17;;
8066;SDS011;4076;48.076;9.118;2023-05-14T05:04:34;10.27;;;4.90;;
8066;SDS011;4076;48.076;9.118;2023-05-14T05:07:00;10.83;;;7.23;;
8066;SDS011;4076;48.076;9.118;2023-05-14T05:09:26;10.03;;;7.20;;
8066;SDS011;4076;48.076;9.118;2023-05-14T05:11:51;9.80;;;6.57;;
8066;SDS011;4076;48.076;9.118;2023-05-14T05:14:17;7.50;;;6.43;;
8066;SDS011;4076;48.076;9.118;2023-05-14T05:16:42;9.97;;;6.60;;
8066;SDS011;4076;48.076;9.118;2023-05-14T05:19:08;11.30;;;5.30;;
8066;SDS011;4076;48.076;9.118;2023-05-14T05:21:34;6.90;;;4.60;;
8066;SDS011;4076;48.076;9.118;2023-05-14T05:24:00;11.30;;;7.03;;
8066;SDS011;4076;48.076;9.118;2023-05-14T05:26:25;12.33;;;8.13;;
8066;SDS011;4076;48.076;9.118;2023-05-14T05:28:51;10.70;;;8.17;;
8066;SDS011;4076;48.076;9.118;2023-05-14T05:31:17;12.83;;;8.73;;
8066;SDS011;4076;48.076;9.118;2023-05-14T05:33:43;11.50;;;6.93;;
8066;SDS011;4076;48.076;9.118;2023-05-14T05:36:08;9.70;;;6.27;;
8066;SDS011;4076;48.076;9.118;2023-05-14T05:38:34;12.60;;;8.33;;
8066;SDS011;4076;48.076;9.118;2023-05-14T05:41:00;11.57;;;7.73;;
8066;SDS011;4076;48.076;9.118;2023-05-14T05:43:25;13.87;;;8.60;;
8066;SDS011;4076;48.076;9.118;2023-05-14T05:45:52;10.10;;;7.60;;
8066;SDS011;4076;48.076;9.118;2023-05-14T05:48:18;10.17;;;6.93;;
8066;SDS011;4076;48.076;9.118;2023-05-14T05:50:45;12.40;;;8.83;;
8066;SDS011;4076;48.076;9.118;2023-05-14T05:53:12;10.70;;;7.93;;
8066;SDS011;4076;48.076;9.118;2023-05-14T05:55:40;11.37;;;7.40;;
8066;SDS011;4076;48.076;9.118;2023-05-14T05:58:06;13.47;;;9.43;;
8066;SDS011;4076;48.076;9.118;2023-05-14T06:00:31;14.77;;;8.57;;
8066;SDS011;4076;48.076;9.118;2023-05-14T06:02:57;12.07;;;8.30;;
8066;SDS011;4076;48.076;9.118;2023-05-14T06:05:22;10.70;;;7.60;;
8066;SDS011;4076;48.076;9.118;2023-05-14T06:07:48;13.30;;;10.17;;
8066;SDS011;4076;48.076;9.118;2023-05-14T06:10:13;11.57;;;6.90;;
8066;SDS011;4076;48.076;9.118;2023-05-14T06:12:39;11.83;;;9.37;;
8066;SDS011;4076;48.076;9.118;2023-05-14T06:15:05;10.80;;;7.67;;
8066;SDS011;4076;48.076;9.118;2023-05-14T06:17:31;9.90;;;6.70;;
8066;SDS011;4076;48.076;9.118;2023-05-14T06:19:56;7.87;;;5.20;;
8066;SDS011;4076;48.076;9.118;2023-05-14T06:22:22;10.17;;;7.23;;
8066;SDS011;4076;48.076;9.118;2023-05-14T06:24:47;10.10;;;5.77;;
8066;SDS011;4076;48.076;9.118;2023-05-14T06:27:13;7.80;;;5.93;;
8066;SDS011;4076;48.076;9.118;2023-05-14T06:29:38;13.10;;;8.03;;
8066;SDS011;4076;48.076;9.118;2023-05-14T06:32:04;9.57;;;6.63;;
8066;SDS011;4076;48.076;9.118;2023-05-14T06:34:30;9.67;;;6.27;;
8066;SDS011;4076;48.076;9.118;2023-05-14T06:36:55;7.93;;;5.13;;
8066;SDS011;4076;48.076;9.118;2023-05-14T06:39:21;11.63;;;8.83;;
8066;SDS011;4076;48.076;9.118;2023-05-14T06:41:48;11.97;;;7.37;;
8066;SDS011;4076;48.076;9.118;2023-05-14T06:44:14;8.03;;;5.83;;
8066;SDS011;4076;48.076;9.118;2023-05-14T06:46:41;12.73;;;7.40;;
8066;SDS011;4076;48.076;9.118;2023-05-14T06:49:06;11.30;;;6.30;;
8066;SDS011;4076;48.076;9.118;2023-05-14T06:51:32;15.37;;;7.37;;
8066;SDS011;4076;48.076;9.118;2023-05-14T06:53:57;8.47;;;6.53;;
8066;SDS011;4076;48.076;9.118;2023-05-14T06:56:23;8.47;;;6.20;;
8066;SDS011;4076;48.076;9.118;2023-05-14T06:58:48;10.33;;;8.00;;
8066;SDS011;4076;48.076;9.118;2023-05-14T07:01:15;9.80;;;7.20;;
8066;SDS011;4076;48.076;9.118;2023-05-14T07:03:40;9.23;;;6.13;;
8066;SDS011;4076;48.076;9.118;2023-05-14T07:06:06;11.30;;;6.90;;
8066;SDS011;4076;48.076;9.118;2023-05-14T07:08:31;10.27;;;7.23;;
8066;SDS011;4076;48.076;9.118;2023-05-14T07:10:57;8.20;;;5.33;;
8066;SDS011;4076;48.076;9.118;2023-05-14T07:13:23;9.03;;;6.03;;
8066;SDS011;4076;48.076;9.118;2023-05-14T07:15:50;7.37;;;5.40;;
8066;SDS011;4076;48.076;9.118;2023-05-14T07:18:16;5.87;;;4.57;;
8066;SDS011;4076;48.076;9.118;2023-05-14T07:20:42;7.07;;;5.00;;
8066;SDS011;4076;48.076;9.118;2023-05-14T07:23:07;7.13;;;5.77;;
8066;SDS011;4076;48.076;9.118;2023-05-14T07:25:33;6.63;;;4.67;;
8066;SDS011;4076;48.076;9.118;2023-05-14T07:27:58;8.47;;;7.00;;
8066;SDS011;4076;48.076;9.118;2023-05-14T07:30:24;10.97;;;7.60;;
8066;SDS011;4076;48.076;9.118;2023-05-14T07:32:50;11.10;;;6.73;;
8066;SDS011;4076;48.076;9.118;2023-05-14T07:35:15;50.80;;;34.97;;
8066;SDS011;4076;48.076;9.118;2023-05-14T07:37:41;27.57;;;21.07;;
8066;SDS011;4076;48.076;9.118;2023-05-14T07:40:07;24.43;;;18.20;;
8066;SDS011;4076;48.076;9.118;2023-05-14T07:42:33;15.17;;;11.40;;
8066;SDS011;4076;48.076;9.118;2023-05-14T07:44:59;11.97;;;9.00;;
8066;SDS011;4076;48.076;9.118;2023-05-14T07:47:24;11.17;;;7.90;;
8066;SDS011;4076;48.076;9.118;2023-05-14T07:49:53;10.43;;;6.60;;
8066;SDS011;4076;48.076;9.118;2023-05-14T07:52:19;10.00;;;5.53;;
8066;SDS011;4076;48.076;9.118;2023-05-14T07:54:44;13.20;;;9.13;;
8066;SDS011;4076;48.076;9.118;2023-05-14T07:57:10;39.93;;;32.67;;
8066;SDS011;4076;48.076;9.118;2023-05-14T07:59:35;22.10;;;16.40;;
8066;SDS011;4076;48.076;9.118;2023-05-14T08:02:01;15.17;;;11.03;;
8066;SDS011;4076;48.076;9.118;2023-05-14T08:04:26;14.67;;;9.30;;
8066;SDS011;4076;48.076;9.118;2023-05-14T08:06:52;12.90;;;8.00;;
8066;SDS011;4076;48.076;9.118;2023-05-14T08:09:17;8.20;;;6.93;;
8066;SDS011;4076;48.076;9.118;2023-05-14T08:11:43;9.90;;;7.90;;
8066;SDS011;4076;48.076;9.118;2023-05-14T08:14:08;8.40;;;6.00;;
8066;SDS011;4076;48.076;9.118;2023-05-14T08:16:34;7.83;;;5.57;;
8066;SDS011;4076;48.076;9.118;2023-05-14T08:19:00;7.67;;;4.63;;
8066;SDS011;4076;48.076;9.118;2023-05-14T08:21:25;7.00;;;5.00;;
8066;SDS011;4076;48.076;9.118;2023-05-14T08:23:52;7.37;;;5.50;;
8066;SDS011;4076;48.076;9.118;2023-05-14T08:26:17;7.10;;;5.47;;
8066;SDS011;4076;48.076;9.118;2023-05-14T08:28:43;8.60;;;4.93;;
8066;SDS011;4076;48.076;9.118;2023-05-14T08:31:08;7.10;;;5.50;;
8066;SDS011;4076;48.076;9.118;2023-05-14T08:33:34;9.20;;;6.43;;
8066;SDS011;4076;48.076;9.118;2023-05-14T08:35:59;10.73;;;6.60;;
8066;SDS011;4076;48.076;9.118;2023-05-14T08:38:25;10.13;;;7.00;;
8066;SDS011;4076;48.076;9.118;2023-05-14T08:40:57;10.53;;;7.60;;
8066;SDS011;4076;48.076;9.118;2023-05-14T08:43:29;11.53;;;8.33;;
8066;SDS011;4076;48.076;9.118;2023-05-14T08:46:03;12.00;;;8.10;;
8066;SDS011;4076;48.076;9.118;2023-05-14T08:48:31;12.57;;;9.73;;
8066;SDS011;4076;48.076;9.118;2023-05-14T08:51:00;21.33;;;15.60;;
8066;SDS011;4076;48.076;9.118;2023-05-14T08:53:26;19.37;;;12.30;;
8066;SDS011;4076;48.076;9.118;2023-05-14T08:55:51;17.43;;;12.20;;
8066;SDS011;4076;48.076;9.118;2023-05-14T08:58:18;13.77;;;9.70;;
8066;SDS011;4076;48.076;9.118;2023-05-14T09:00:43;13.60;;;9.43;;
8066;SDS011;4076;48.076;9.118;2023-05-14T09:03:09;16.40;;;11.87;;
8066;SDS011;4076;48.076;9.118;2023-05-14T09:05:36;13.90;;;10.87;;
8066;SDS011;4076;48.076;9.118;2023-05-14T09:08:02;12.90;;;9.10;;
8066;SDS011;4076;48.076;9.118;2023-05-14T09:10:27;11.57;;;9.30;;
8066;SDS011;4076;48.076;9.118;2023-05-14T09:12:53;13.00;;;9.17;;
8066;SDS011;4076;48.076;9.118;2023-05-14T09:15:19;10.00;;;8.10;;
8066;SDS011;4076;48.076;9.118;2023-05-14T09:17:44;18.00;;;12.00;;
8066;SDS011;4076;48.076;9.118;2023-05-14T09:20:12;12.20;;;9.63;;
8066;SDS011;4076;48.076;9.118;2023-05-14T09:22:39;12.97;;;8.80;;
8066;SDS011;4076;48.076;9.118;2023-05-14T09:25:06;11.03;;;7.97;;
8066;SDS011;4076;48.076;9.118;2023-05-14T09:27:33;13.10;;;9.03;;
8066;SDS011;4076;48.076;9.118;2023-05-14T09:30:03;11.37;;;7.83;;
8066;SDS011;4076;48.076;9.118;2023-05-14T09:32:37;10.60;;;6.83;;
8066;SDS011;4076;48.076;9.118;2023-05-14T09:35:16;9.90;;;7.30;;
8066;SDS011;4076;48.076;9.118;2023-05-14T09:37:48;13.87;;;8.83;;
8066;SDS011;4076;48.076;9.118;2023-05-14T09:40:15;11.70;;;7.33;;
8066;SDS011;4076;48.076;9.118;2023-05-14T09:42:42;10.70;;;8.80;;
8066;SDS011;4076;48.076;9.118;2023-05-14T09:45:08;13.23;;;9.97;;
8066;SDS011;4076;48.076;9.118;2023-05-14T09:47:38;11.30;;;8.10;;
8066;SDS011;4076;48.076;9.118;2023-05-14T09:50:04;12.03;;;7.60;;
8066;SDS011;4076;48.076;9.118;2023-05-14T09:52:30;11.57;;;9.23;;
8066;SDS011;4076;48.076;9.118;2023-05-14T09:54:58;11.40;;;7.93;;
8066;SDS011;4076;48.076;9.118;2023-05-14T09:57:24;9.27;;;6.93;;
8066;SDS011;4076;48.076;9.118;2023-05-14T09:59:50;9.23;;;6.87;;
8066;SDS011;4076;48.076;9.118;2023-05-14T10:02:24;9.93;;;6.10;;
8066;SDS011;4076;48.076;9.118;2023-05-14T10:04:54;11.50;;;8.73;;
8066;SDS011;4076;48.076;9.118;2023-05-14T10:07:36;10.70;;;8.20;;
8066;SDS011;4076;48.076;9.118;2023-05-14T10:10:13;9.20;;;6.67;;
8066;SDS011;4076;48.076;9.118;2023-05-14T10:12:42;11.27;;;8.00;;
8066;SDS011;4076;48.076;9.118;2023-05-14T10:15:16;8.53;;;7.17;;
8066;SDS011;4076;48.076;9.118;2023-05-14T10:17:52;7.53;;;5.23;;
8066;SDS011;4076;48.076;9.118;2023-05-14T10:20:20;8.07;;;5.27;;
8066;SDS011;4076;48.076;9.118;2023-05-14T10:22:47;10.83;;;8.13;;
8066;SDS011;4076;48.076;9.118;2023-05-14T10:25:12;6.57;;;4.80;;
8066;SDS011;4076;48.076;9.118;2023-05-14T10:27:38;8.10;;;5.00;;
8066;SDS011;4076;48.076;9.118;2023-05-14T10:30:05;9.43;;;5.20;;
8066;SDS011;4076;48.076;9.118;2023-05-14T10:32:36;6.10;;;5.40;;
8066;SDS011;4076;48.076;9.118;2023-05-14T10:35:05;9.53;;;6.53;;
8066;SDS011;4076;48.076;9.118;2023-05-14T10:37:44;7.43;;;4.80;;
8066;SDS011;4076;48.076;9.118;2023-05-14T10:40:10;8.27;;;6.40;;
8066;SDS011;4076;48.076;9.118;2023-05-14T10:42:37;9.43;;;6.40;;
8066;SDS011;4076;48.076;9.118;2023-05-14T10:45:08;9.00;;;6.97;;
8066;SDS011;4076;48.076;9.118;2023-05-14T10:47:35;12.63;;;11.33;;
8066;SDS011;4076;48.076;9.118;2023-05-14T10:50:04;27.10;;;18.80;;
8066;SDS011;4076;48.076;9.118;2023-05-14T10:52:31;11.30;;;8.40;;
8066;SDS011;4076;48.076;9.118;2023-05-14T10:54:58;7.03;;;5.43;;
8066;SDS011;4076;48.076;9.118;2023-05-14T10:57:25;8.83;;;6.70;;
8066;SDS011;4076;48.076;9.118;2023-05-14T10:59:53;8.67;;;6.33;;
8066;SDS011;4076;48.076;9.118;2023-05-14T11:02:24;13.77;;;10.60;;
8066;SDS011;4076;48.076;9.118;2023-05-14T11:07:44;8.27;;;6.13;;
8066;SDS011;4076;48.076;9.118;2023-05-14T11:10:12;5.47;;;3.57;;
8066;SDS011;4076;48.076;9.118;2023-05-14T11:12:40;5.07;;;3.97;;
8066;SDS011;4076;48.076;9.118;2023-05-14T11:15:08;5.40;;;4.03;;
8066;SDS011;4076;48.076;9.118;2023-05-14T11:17:35;5.80;;;4.03;;
8066;SDS011;4076;48.076;9.118;2023-05-14T11:20:02;7.13;;;4.93;;
8066;SDS011;4076;48.076;9.118;2023-05-14T11:22:31;4.70;;;4.20;;
8066;SDS011;4076;48.076;9.118;2023-05-14T11:24:58;6.27;;;4.43;;
8066;SDS011;4076;48.076;9.118;2023-05-14T11:27:23;5.40;;;3.80;;
8066;SDS011;4076;48.076;9.118;2023-05-14T11:29:50;4.97;;;3.80;;
8066;SDS011;4076;48.076;9.118;2023-05-14T11:32:16;5.53;;;4.57;;
8066;SDS011;4076;48.076;9.118;2023-05-14T11:34:43;6.70;;;4.83;;
8066;SDS011;4076;48.076;9.118;2023-05-14T11:37:09;6.13;;;4.20;;
8066;SDS011;4076;48.076;9.118;2023-05-14T11:39:36;6.17;;;5.10;;
8066;SDS011;4076;48.076;9.118;2023-05-14T11:42:03;6.27;;;4.33;;
8066;SDS011;4076;48.076;9.118;2023-05-14T11:44:30;5.50;;;3.77;;
8066;SDS011;4076;48.076;9.118;2023-05-14T11:46:56;5.53;;;3.70;;
8066;SDS011;4076;48.076;9.118;2023-05-14T11:49:23;4.70;;;3.27;;
8066;SDS011;4076;48.076;9.118;2023-05-14T11:51:50;5.20;;;3.77;;
8066;SDS011;4076;48.076;9.118;2023-05-14T11:54:24;5.47;;;3.23;;
8066;SDS011;4076;48.076;9.118;2023-05-14T11:56:51;4.30;;;3.77;;
8066;SDS011;4076;48.076;9.118;2023-05-14T11:59:16;6.20;;;3.67;;
8066;SDS011;4076;48.076;9.118;2023-05-14T12:01:43;4.30;;;3.20;;
8066;SDS011;4076;48.076;9.118;2023-05-14T12:04:11;12.00;;;9.30;;
8066;SDS011;4076;48.076;9.118;2023-05-14T12:06:37;10.67;;;8.13;;
8066;SDS011;4076;48.076;9.118;2023-05-14T12:09:04;7.33;;;5.20;;
8066;SDS011;4076;48.076;9.118;2023-05-14T12:11:30;5.50;;;4.23;;
8066;SDS011;4076;48.076;9.118;2023-05-14T12:13:56;7.07;;;4.60;;
8066;SDS011;4076;48.076;9.118;2023-05-14T12:16:23;5.00;;;4.03;;
8066;SDS011;4076;48.076;9.118;2023-05-14T12:19:00;4.97;;;3.70;;
8066;SDS011;4076;48.076;9.118;2023-05-14T12:21:26;4.73;;;3.20;;
8066;SDS011;4076;48.076;9.118;2023-05-14T12:23:59;6.83;;;5.53;;
8066;SDS011;4076;48.076;9.118;2023-05-14T12:26:25;8.27;;;6.53;;
8066;SDS011;4076;48.076;9.118;2023-05-14T12:28:55;7.33;;;6.37;;
8066;SDS011;4076;48.076;9.118;2023-05-14T12:31:27;7.20;;;5.03;;
8066;SDS011;4076;48.076;9.118;2023-05-14T12:33:53;7.37;;;4.80;;
8066;SDS011;4076;48.076;9.118;2023-05-14T12:36:19;5.40;;;3.93;;
8066;SDS011;4076;48.076;9.118;2023-05-14T12:38:44;8.17;;;5.07;;
8066;SDS011;4076;48.076;9.118;2023-05-14T12:41:10;5.63;;;4.50;;
8066;SDS011;4076;48.076;9.118;2023-05-14T12:43:35;4.50;;;3.30;;
8066;SDS011;4076;48.076;9.118;2023-05-14T12:46:01;4.90;;;4.03;;
8066;SDS011;4076;48.076;9.118;2023-05-14T12:48:26;4.90;;;3.67;;
8066;SDS011;4076;48.076;9.118;2023-05-14T12:50:52;4.30;;;3.30;;
8066;SDS011;4076;48.076;9.118;2023-05-14T12:53:17;3.53;;;2.60;;
8066;SDS011;4076;48.076;9.118;2023-05-14T12:55:43;4.10;;;3.10;;
8066;SDS011;4076;48.076;9.118;2023-05-14T12:58:09;5.87;;;4.13;;
8066;SDS011;4076;48.076;9.118;2023-05-14T13:00:34;4.67;;;3.73;;
8066;SDS011;4076;48.076;9.118;2023-05-14T13:03:00;4.60;;;3.50;;
8066;SDS011;4076;48.076;9.118;2023-05-14T13:05:25;5.63;;;4.10;;
8066;SDS011;4076;48.076;9.118;2023-05-14T13:07:51;5.50;;;3.80;;
8066;SDS011;4076;48.076;9.118;2023-05-14T13:10:17;5.50;;;4.10;;
8066;SDS011;4076;48.076;9.118;2023-05-14T13:12:43;5.70;;;5.00;;
8066;SDS011;4076;48.076;9.118;2023-05-14T13:15:09;7.60;;;5.30;;
8066;SDS011;4076;48.076;9.118;2023-05-14T13:17:37;6.47;;;5.07;;
8066;SDS011;4076;48.076;9.118;2023-05-14T13:20:05;5.43;;;3.67;;
8066;SDS011;4076;48.076;9.118;2023-05-14T13:22:32;5.87;;;4.13;;
8066;SDS011;4076;48.076;9.118;2023-05-14T13:24:57;5.80;;;4.50;;
8066;SDS011;4076;48.076;9.118;2023-05-14T13:27:23;6.33;;;3.97;;
8066;SDS011;4076;48.076;9.118;2023-05-14T13:29:48;6.40;;;4.53;;
8066;SDS011;4076;48.076;9.118;2023-05-14T13:32:14;6.00;;;4.30;;
8066;SDS011;4076;48.076;9.118;2023-05-14T13:34:40;7.30;;;4.80;;
8066;SDS011;4076;48.076;9.118;2023-05-14T13:37:05;6.60;;;4.40;;
8066;SDS011;4076;48.076;9.118;2023-05-14T13:39:31;7.33;;;5.03;;
8066;SDS011;4076;48.076;9.118;2023-05-14T13:41:56;6.70;;;4.10;;
8066;SDS011;4076;48.076;9.118;2023-05-14T13:44:22;6.13;;;4.20;;
8066;SDS011;4076;48.076;9.118;2023-05-14T13:46:48;7.67;;;5.33;;
8066;SDS011;4076;48.076;9.118;2023-05-14T13:49:14;9.40;;;4.33;;
8066;SDS011;4076;48.076;9.118;2023-05-14T13:51:39;6.40;;;4.67;;
8066;SDS011;4076;48.076;9.118;2023-05-14T13:54:05;6.30;;;4.47;;
8066;SDS011;4076;48.076;9.118;2023-05-14T13:56:31;6.50;;;4.03;;
8066;SDS011;4076;48.076;9.118;2023-05-14T13:58:57;7.63;;;5.13;;
8066;SDS011;4076;48.076;9.118;2023-05-14T14:01:22;6.70;;;3.90;;
8066;SDS011;4076;48.076;9.118;2023-05-14T14:03:48;5.17;;;3.37;;
8066;SDS011;4076;48.076;9.118;2023-05-14T14:06:13;5.53;;;3.57;;
8066;SDS011;4076;48.076;9.118;2023-05-14T14:08:39;5.43;;;4.03;;
8066;SDS011;4076;48.076;9.118;2023-05-14T14:11:04;5.20;;;3.30;;
8066;SDS011;4076;48.076;9.118;2023-05-14T14:13:30;4.53;;;2.90;;
8066;SDS011;4076;48.076;9.118;2023-05-14T14:15:56;4.03;;;2.97;;
8066;SDS011;4076;48.076;9.118;2023-05-14T14:18:21;5.00;;;3.07;;
8066;SDS011;4076;48.076;9.118;2023-05-14T14:20:47;4.70;;;2.63;;
8066;SDS011;4076;48.076;9.118;2023-05-14T14:23:12;5.20;;;2.40;;
8066;SDS011;4076;48.076;9.118;2023-05-14T14:25:38;3.80;;;2.73;;
8066;SDS011;4076;48.076;9.118;2023-05-14T14:28:04;4.63;;;2.77;;
8066;SDS011;4076;48.076;9.118;2023-05-14T14:30:29;6.03;;;3.13;;
8066;SDS011;4076;48.076;9.118;2023-05-14T14:32:56;4.20;;;2.67;;
8066;SDS011;4076;48.076;9.118;2023-05-14T14:35:21;4.10;;;3.07;;
8066;SDS011;4076;48.076;9.118;2023-05-14T14:37:47;6.77;;;4.03;;
8066;SDS011;4076;48.076;9.118;2023-05-14T14:40:13;5.80;;;3.43;;
8066;SDS011;4076;48.076;9.118;2023-05-14T14:42:39;4.83;;;3.37;;
8066;SDS011;4076;48.076;9.118;2023-05-14T14:45:07;5.83;;;3.80;;
8066;SDS011;4076;48.076;9.118;2023-05-14T14:47:33;4.90;;;3.10;;
8066;SDS011;4076;48.076;9.118;2023-05-14T14:49:58;5.73;;;3.43;;
8066;SDS011;4076;48.076;9.118;2023-05-14T14:52:25;4.50;;;3.00;;
8066;SDS011;4076;48.076;9.118;2023-05-14T14:54:51;4.03;;;2.87;;
8066;SDS011;4076;48.076;9.118;2023-05-14T14:57:17;5.83;;;2.90;;
8066;SDS011;4076;48.076;9.118;2023-05-14T14:59:42;3.70;;;2.40;;
8066;SDS011;4076;48.076;9.118;2023-05-14T15:02:08;4.03;;;2.60;;
8066;SDS011;4076;48.076;9.118;2023-05-14T15:04:34;4.83;;;2.87;;
8066;SDS011;4076;48.076;9.118;2023-05-14T15:07:00;3.53;;;2.30;;
8066;SDS011;4076;48.076;9.118;2023-05-14T15:09:26;3.70;;;2.50;;
8066;SDS011;4076;48.076;9.118;2023-05-14T15:11:51;5.20;;;2.43;;